Time;durP1;ratioP1;P1;durP2;ratioP2;P2;SDS_P1;SDS_P2;PMS_P1;PMS_P2;Temp;Humidity;BMP_temperature;BMP_pressure;BME280_temperature;BME280_humidity;BME280_pressure;Samples;Min_cycle;Max_cycle;Signal;HPM_P1;HPM_P2
2024/01/28 00:00:48;;;;;;;37.45;19.00;;;3.80;99.90;;;;;;4959826;28;20478;-77
2024/01/28 00:03:28;;;;;;;41.10;17.98;;;3.70;99.90;;;;;;4957809;28;20078;-77
2024/01/28 00:06:03;;;;;;;43.35;23.40;;;3.70;99.90;;;;;;4950110;28;20043;-77
2024/01/28 00:08:34;;;;;;;45.00;23.17;;;3.70;99.90;;;;;;4994786;28;20436;-76
2024/01/28 00:11:13;;;;;;;38.17;19.40;;;3.60;99.90;;;;;;4994361;28;20065;-76
2024/01/28 00:13:49;;;;;;;28.75;13.57;;;3.70;99.90;;;;;;4994788;28;20030;-77
2024/01/28 00:16:20;;;;;;;27.13;10.63;;;3.60;99.90;;;;;;4977115;28;20022;-76
2024/01/28 00:18:58;;;;;;;25.45;10.98;;;3.60;99.90;;;;;;4964897;28;20532;-76
2024/01/28 00:21:35;;;;;;;21.50;9.48;;;3.50;99.90;;;;;;4988747;28;20494;-76
2024/01/28 00:24:04;;;;;;;22.77;10.68;;;3.50;99.90;;;;;;4988169;28;20026;-76
2024/01/28 00:26:41;;;;;;;23.75;9.40;;;3.50;99.90;;;;;;4961040;28;20084;-76
2024/01/28 00:29:17;;;;;;;24.73;11.00;;;3.50;99.90;;;;;;4960849;28;20070;-76
2024/01/28 00:31:47;;;;;;;26.23;12.55;;;3.50;99.90;;;;;;4976364;28;20097;-77
2024/01/28 00:34:15;;;;;;;29.40;12.43;;;3.50;99.90;;;;;;4960503;28;20059;-76
2024/01/28 00:36:48;;;;;;;30.73;11.55;;;3.40;99.90;;;;;;4960406;28;20100;-77
2024/01/28 00:39:23;;;;;;;19.30;8.38;;;3.40;99.90;;;;;;5062136;23;20018;-77
2024/01/28 00:42:16;;;;;;;15.95;7.15;;;3.40;99.90;;;;;;4939086;28;20039;-76
2024/01/28 00:44:50;;;;;;;18.55;7.95;;;3.40;99.90;;;;;;4945304;29;20064;-77
2024/01/28 00:47:44;;;;;;;22.65;9.40;;;3.30;99.90;;;;;;4963080;28;20078;-77
2024/01/28 00:50:20;;;;;;;28.83;10.77;;;3.30;99.90;;;;;;4950886;29;20374;-76
2024/01/28 00:52:55;;;;;;;21.70;9.20;;;3.30;99.90;;;;;;4955490;29;20023;-76
2024/01/28 00:55:33;;;;;;;27.88;11.10;;;3.30;99.90;;;;;;4938181;29;20047;-76
2024/01/28 00:58:02;;;;;;;37.20;13.25;;;3.30;99.90;;;;;;4938687;29;20027;-76
2024/01/28 01:00:34;;;;;;;21.85;9.43;;;3.30;99.90;;;;;;4955142;29;20050;-78
2024/01/28 01:03:05;;;;;;;19.92;7.80;;;3.30;99.90;;;;;;4937445;28;20418;-75
2024/01/28 01:05:34;;;;;;;18.48;6.43;;;3.20;99.90;;;;;;4955349;29;20034;-75
2024/01/28 01:08:10;;;;;;;16.83;7.03;;;3.20;99.90;;;;;;4937774;28;20039;-76
2024/01/28 01:10:55;;;;;;;22.08;8.40;;;3.20;99.90;;;;;;4969820;28;20027;-74
2024/01/28 01:13:24;;;;;;;18.25;8.23;;;3.20;99.90;;;;;;4937817;29;20044;-75
2024/01/28 01:15:55;;;;;;;17.83;7.88;;;3.20;99.90;;;;;;4954862;29;20046;-75
2024/01/28 01:18:23;;;;;;;18.52;6.00;;;3.20;99.90;;;;;;4943691;28;20039;-75
2024/01/28 01:20:54;;;;;;;17.77;5.40;;;3.10;99.90;;;;;;4959959;28;20026;-75
2024/01/28 01:23:23;;;;;;;15.77;5.28;;;3.10;99.90;;;;;;4954893;29;20024;-75
2024/01/28 01:25:51;;;;;;;13.65;5.43;;;3.00;99.90;;;;;;4910569;29;20032;-75
2024/01/28 01:28:17;;;;;;;12.10;4.30;;;3.00;99.90;;;;;;4952382;28;20286;-75
2024/01/28 01:30:43;;;;;;;14.65;5.40;;;2.90;99.90;;;;;;4954792;29;20039;-76
2024/01/28 01:33:09;;;;;;;14.82;5.97;;;2.90;99.90;;;;;;4954607;29;20015;-75
2024/01/28 01:35:51;;;;;;;16.00;6.03;;;2.90;99.90;;;;;;4954501;28;20035;-77
2024/01/28 01:38:21;;;;;;;11.95;6.15;;;2.90;99.90;;;;;;4946424;29;20019;-77
2024/01/28 01:40:47;;;;;;;16.00;5.82;;;2.80;99.90;;;;;;4954383;29;20011;-75
2024/01/28 01:43:15;;;;;;;15.27;6.20;;;2.80;99.90;;;;;;4948598;28;20134;-76
2024/01/28 01:45:42;;;;;;;16.08;5.50;;;2.80;99.90;;;;;;4934109;29;20031;-75
2024/01/28 01:48:11;;;;;;;14.32;6.47;;;2.80;99.90;;;;;;4932550;29;20039;-76
2024/01/28 01:50:39;;;;;;;9.15;4.53;;;2.80;99.90;;;;;;4934995;29;20031;-76
2024/01/28 01:53:14;;;;;;;15.48;5.90;;;2.80;99.90;;;;;;4935354;29;20024;-76
2024/01/28 01:55:43;;;;;;;11.95;5.60;;;2.80;99.90;;;;;;4924278;29;20106;-77
2024/01/28 01:58:09;;;;;;;15.70;6.07;;;2.80;99.90;;;;;;4934323;29;20058;-75
2024/01/28 02:00:37;;;;;;;14.57;6.18;;;2.80;99.90;;;;;;4949736;29;20028;-76
2024/01/28 02:03:03;;;;;;;13.43;5.72;;;2.80;99.90;;;;;;4934655;29;20099;-76
2024/01/28 02:05:29;;;;;;;15.75;7.15;;;2.80;99.90;;;;;;4918254;29;20071;-77
2024/01/28 02:07:58;;;;;;;11.82;5.70;;;2.70;99.90;;;;;;4934936;29;20066;-76
2024/01/28 02:10:25;;;;;;;13.65;5.60;;;2.70;99.90;;;;;;4934904;29;20039;-77
2024/01/28 02:12:52;;;;;;;11.55;5.68;;;2.70;99.90;;;;;;4935222;29;20138;-76
2024/01/28 02:15:19;;;;;;;17.33;6.30;;;2.70;99.90;;;;;;4934380;29;20036;-77
2024/01/28 02:17:52;;;;;;;13.40;5.30;;;2.60;99.90;;;;;;4934799;29;20032;-77
2024/01/28 02:20:18;;;;;;;15.73;6.75;;;2.60;99.90;;;;;;4934783;29;20066;-75
2024/01/28 02:22:44;;;;;;;16.75;7.65;;;2.60;99.90;;;;;;4935010;29;20062;-75
2024/01/28 02:25:15;;;;;;;20.17;7.85;;;2.60;99.90;;;;;;4917869;29;20130;-75
2024/01/28 02:27:46;;;;;;;17.67;8.10;;;2.50;99.90;;;;;;4917800;29;20523;-74
2024/01/28 02:30:13;;;;;;;15.23;7.70;;;2.50;99.90;;;;;;4936846;29;20498;-76
2024/01/28 02:32:47;;;;;;;18.48;8.15;;;2.50;99.90;;;;;;4938629;29;20030;-75
2024/01/28 02:35:26;;;;;;;15.77;7.20;;;2.50;99.90;;;;;;4933934;29;20054;-76
2024/01/28 02:38:00;;;;;;;15.45;7.00;;;2.40;99.90;;;;;;4909419;29;20031;-75
2024/01/28 02:40:28;;;;;;;17.88;6.18;;;2.40;99.90;;;;;;4953071;29;20031;-76
2024/01/28 02:42:57;;;;;;;14.73;6.32;;;2.30;99.90;;;;;;4941426;29;20053;-75
2024/01/28 02:45:25;;;;;;;14.40;6.47;;;2.30;99.90;;;;;;4957349;28;20019;-76
2024/01/28 02:47:51;;;;;;;17.10;7.65;;;2.30;99.90;;;;;;4957865;28;20069;-75
2024/01/28 02:50:22;;;;;;;18.73;8.07;;;2.30;99.90;;;;;;4956759;28;20023;-76
2024/01/28 02:52:58;;;;;;;17.35;7.22;;;2.30;99.90;;;;;;4940070;29;20482;-76
2024/01/28 02:55:29;;;;;;;13.90;6.28;;;2.30;99.90;;;;;;4957098;29;20050;-76
2024/01/28 02:57:59;;;;;;;12.40;7.13;;;2.30;99.90;;;;;;4938403;29;20063;-74
2024/01/28 03:00:26;;;;;;;14.07;6.32;;;2.30;99.90;;;;;;4939899;29;20031;-75
2024/01/28 03:02:55;;;;;;;14.63;5.50;;;2.20;99.90;;;;;;4956736;29;20027;-75
2024/01/28 03:05:23;;;;;;;13.00;6.10;;;2.30;99.90;;;;;;4940071;29;20035;-75
2024/01/28 03:07:59;;;;;;;16.80;6.50;;;2.30;99.90;;;;;;4956764;28;20509;-75
2024/01/28 03:10:35;;;;;;;19.25;6.70;;;2.20;99.90;;;;;;4956834;29;20019;-75
2024/01/28 03:13:11;;;;;;;16.70;7.07;;;2.20;99.90;;;;;;4944220;29;20197;-76
2024/01/28 03:15:55;;;;;;;15.18;6.68;;;2.20;99.90;;;;;;4933058;29;20035;-76
2024/01/28 03:18:24;;;;;;;17.02;7.00;;;2.20;99.90;;;;;;4960619;28;20050;-74
2024/01/28 03:20:50;;;;;;;14.23;6.95;;;2.20;99.90;;;;;;4956835;28;20494;-75
2024/01/28 03:23:16;;;;;;;15.50;6.20;;;2.20;99.90;;;;;;4957262;29;20063;-75
2024/01/28 03:25:49;;;;;;;13.05;5.95;;;2.20;99.90;;;;;;4955668;29;20071;-75
2024/01/28 03:28:17;;;;;;;13.20;6.72;;;2.20;99.90;;;;;;4956962;29;20486;-75
2024/01/28 03:30:43;;;;;;;15.48;6.32;;;2.20;99.90;;;;;;4956975;28;20038;-77
2024/01/28 03:33:09;;;;;;;12.52;6.03;;;2.20;99.90;;;;;;4956231;29;20043;-76
2024/01/28 03:35:35;;;;;;;12.48;6.78;;;2.30;99.90;;;;;;4939612;29;20331;-76
2024/01/28 03:38:01;;;;;;;17.08;6.13;;;2.30;99.90;;;;;;4957246;28;20027;-76
2024/01/28 03:40:30;;;;;;;15.35;6.88;;;2.20;99.90;;;;;;4956062;28;20114;-76
2024/01/28 03:42:56;;;;;;;16.52;8.52;;;2.20;99.90;;;;;;4956195;28;20191;-76
2024/01/28 03:45:24;;;;;;;21.30;9.27;;;2.20;99.90;;;;;;4956591;28;20035;-76
2024/01/28 03:47:50;;;;;;;18.58;8.15;;;2.20;99.90;;;;;;4939178;29;20043;-77
2024/01/28 03:50:19;;;;;;;15.32;7.03;;;2.20;99.90;;;;;;4956250;29;20019;-75
2024/01/28 03:52:45;;;;;;;17.00;6.82;;;2.20;99.90;;;;;;4956248;28;20035;-75
2024/01/28 03:55:14;;;;;;;18.00;7.80;;;2.20;99.90;;;;;;4922838;29;20391;-75
2024/01/28 03:57:49;;;;;;;17.05;8.10;;;2.20;99.90;;;;;;4919971;29;20036;-75
2024/01/28 04:00:15;;;;;;;20.65;8.57;;;2.20;99.90;;;;;;4937307;29;20487;-75
2024/01/28 04:02:41;;;;;;;19.60;8.20;;;2.20;99.90;;;;;;4955915;29;20031;-74
2024/01/28 04:05:08;;;;;;;21.52;9.60;;;2.20;99.90;;;;;;4955709;28;20090;-74
2024/01/28 04:07:38;;;;;;;21.52;8.85;;;2.20;99.90;;;;;;4955765;29;20067;-76
2024/01/28 04:10:07;;;;;;;19.00;9.25;;;2.20;99.90;;;;;;4924299;29;20505;-75
2024/01/28 04:12:32;;;;;;;22.58;10.38;;;2.20;99.90;;;;;;4955556;28;20078;-76
2024/01/28 04:15:06;;;;;;;22.70;9.90;;;2.20;99.90;;;;;;4955790;29;20027;-77
2024/01/28 04:17:35;;;;;;;23.35;9.75;;;2.20;99.90;;;;;;4956247;28;20359;-76
2024/01/28 04:20:03;;;;;;;24.77;8.15;;;2.10;99.90;;;;;;4955774;29;20075;-76
2024/01/28 04:22:30;;;;;;;15.93;6.68;;;2.10;99.90;;;;;;4955819;29;20042;-76
2024/01/28 04:24:58;;;;;;;21.10;8.55;;;2.10;99.90;;;;;;4955635;28;20066;-78
2024/01/28 04:27:27;;;;;;;22.80;10.82;;;2.00;99.90;;;;;;4955811;28;20058;-78
2024/01/28 04:29:53;;;;;;;18.52;8.88;;;2.00;99.90;;;;;;4955598;29;20027;-75
2024/01/28 04:32:26;;;;;;;16.02;6.82;;;2.00;99.90;;;;;;4955582;29;20085;-76
2024/01/28 04:34:52;;;;;;;14.77;6.43;;;2.00;99.90;;;;;;4955538;29;20027;-75
2024/01/28 04:37:18;;;;;;;16.02;6.13;;;2.00;99.90;;;;;;4955642;29;20430;-75
2024/01/28 04:39:51;;;;;;;13.02;5.07;;;2.00;99.90;;;;;;4955837;29;20110;-75
2024/01/28 04:42:21;;;;;;;13.45;5.18;;;1.90;99.90;;;;;;4938185;28;20075;-78
2024/01/28 04:44:53;;;;;;;12.90;6.32;;;1.90;99.90;;;;;;4955806;28;20434;-77
2024/01/28 04:47:24;;;;;;;9.38;4.70;;;1.80;99.90;;;;;;4954812;28;20058;-76
2024/01/28 04:50:09;;;;;;;12.70;5.53;;;1.80;99.90;;;;;;4955252;28;20178;-76
2024/01/28 04:52:37;;;;;;;11.90;5.53;;;1.80;99.90;;;;;;4943739;28;20039;-75
2024/01/28 04:55:04;;;;;;;15.15;5.80;;;1.80;99.90;;;;;;4942658;29;20047;-76
2024/01/28 04:57:30;;;;;;;10.55;5.68;;;1.80;99.90;;;;;;4944558;29;20030;-76
2024/01/28 04:59:56;;;;;;;11.15;5.05;;;1.80;99.90;;;;;;4947391;29;20031;-75
2024/01/28 05:02:22;;;;;;;10.85;5.15;;;1.70;99.90;;;;;;4939409;29;20106;-76
2024/01/28 05:04:55;;;;;;;15.38;5.72;;;1.70;99.90;;;;;;4941658;29;20050;-75
2024/01/28 05:07:21;;;;;;;13.23;5.75;;;1.70;99.90;;;;;;4941213;29;20036;-77
2024/01/28 05:09:52;;;;;;;14.40;6.07;;;1.70;99.90;;;;;;4951927;28;20102;-76
2024/01/28 05:12:20;;;;;;;14.93;5.63;;;1.70;99.90;;;;;;4955045;28;20031;-75
2024/01/28 05:14:51;;;;;;;13.18;5.15;;;1.60;99.90;;;;;;4954687;28;20118;-77
2024/01/28 05:17:17;;;;;;;16.23;7.15;;;1.60;99.90;;;;;;4955412;28;20406;-78
2024/01/28 05:19:45;;;;;;;10.68;5.60;;;1.60;99.90;;;;;;4951566;29;20025;-75
2024/01/28 05:22:19;;;;;;;15.57;7.07;;;1.60;99.90;;;;;;4937321;29;20509;-77
2024/01/28 05:24:49;;;;;;;18.27;9.23;;;1.70;99.90;;;;;;4954319;28;20027;-78
2024/01/28 05:27:16;;;;;;;22.42;10.38;;;1.70;99.90;;;;;;4954151;28;20094;-77
2024/01/28 05:29:42;;;;;;;19.85;8.50;;;1.60;99.90;;;;;;4954299;28;20019;-77
2024/01/28 05:32:08;;;;;;;15.18;6.68;;;1.60;99.90;;;;;;4954003;29;20045;-77
2024/01/28 05:34:34;;;;;;;19.98;6.88;;;1.60;99.90;;;;;;4954595;28;20031;-78
2024/01/28 05:37:18;;;;;;;20.42;6.43;;;1.60;99.90;;;;;;4954159;29;20105;-78
2024/01/28 05:39:56;;;;;;;13.02;6.07;;;1.60;99.90;;;;;;4954600;28;20023;-78
2024/01/28 05:42:24;;;;;;;15.88;6.57;;;1.70;99.90;;;;;;4933259;29;20094;-78
2024/01/28 05:44:50;;;;;;;18.10;6.78;;;1.60;99.90;;;;;;4945543;29;20446;-78
2024/01/28 05:47:16;;;;;;;15.65;6.32;;;1.60;99.90;;;;;;4954176;28;20130;-76
2024/01/28 05:49:42;;;;;;;17.05;6.28;;;1.60;99.90;;;;;;4953602;29;20032;-78
2024/01/28 05:52:08;;;;;;;15.27;7.10;;;1.50;99.90;;;;;;4953732;28;20498;-78
2024/01/28 05:54:33;;;;;;;16.38;7.95;;;1.50;99.90;;;;;;4954368;28;20035;-77
2024/01/28 05:57:09;;;;;;;21.05;6.72;;;1.50;99.90;;;;;;4953921;28;20155;-78
2024/01/28 05:59:38;;;;;;;13.95;6.18;;;1.50;99.90;;;;;;4953571;29;20495;-77
2024/01/28 06:02:04;;;;;;;12.35;6.07;;;1.50;99.90;;;;;;4952699;28;20031;-76
2024/01/28 06:04:30;;;;;;;13.18;6.60;;;1.50;99.90;;;;;;4953267;28;20023;-76
2024/01/28 06:06:56;;;;;;;15.25;6.25;;;1.50;99.90;;;;;;4953390;28;20026;-76
2024/01/28 06:09:29;;;;;;;14.70;8.60;;;1.40;99.90;;;;;;4953909;29;20042;-77
2024/01/28 06:11:56;;;;;;;18.77;9.48;;;1.40;99.90;;;;;;4953296;28;20040;-77
2024/01/28 06:14:23;;;;;;;19.73;11.88;;;1.40;99.90;;;;;;4954347;29;20039;-77
2024/01/28 06:16:51;;;;;;;21.77;12.00;;;1.40;99.90;;;;;;4953125;29;20082;-77
2024/01/28 06:19:17;;;;;;;21.27;11.18;;;1.40;99.90;;;;;;4935689;29;20035;-77
2024/01/28 06:21:43;;;;;;;21.50;9.55;;;1.40;99.90;;;;;;4942300;29;20054;-76
2024/01/28 06:24:09;;;;;;;18.15;9.60;;;1.50;99.90;;;;;;4952312;28;20110;-76
2024/01/28 06:26:37;;;;;;;23.52;10.25;;;1.40;99.90;;;;;;4953763;29;20062;-78
2024/01/28 06:29:03;;;;;;;20.02;9.60;;;1.50;99.90;;;;;;4953610;28;20027;-74
2024/01/28 06:31:29;;;;;;;20.52;8.93;;;1.50;99.90;;;;;;4952089;29;20024;-78
2024/01/28 06:33:55;;;;;;;18.08;8.60;;;1.50;99.90;;;;;;4953717;29;20086;-75
2024/01/28 06:36:21;;;;;;;22.70;8.57;;;1.50;99.90;;;;;;4936276;29;20352;-77
2024/01/28 06:38:47;;;;;;;17.08;8.65;;;1.50;99.90;;;;;;4953748;29;20035;-77
2024/01/28 06:41:14;;;;;;;16.50;7.75;;;1.50;99.90;;;;;;4953775;29;20057;-77
2024/01/28 06:43:43;;;;;;;23.15;10.73;;;1.60;99.90;;;;;;4914215;29;20056;-78
2024/01/28 06:46:11;;;;;;;22.92;11.75;;;1.60;99.90;;;;;;4934492;29;20063;-77
2024/01/28 06:48:46;;;;;;;24.40;13.80;;;1.70;99.90;;;;;;4934476;29;20046;-77
2024/01/28 06:51:14;;;;;;;27.80;14.95;;;1.80;99.90;;;;;;4934331;29;20224;-77
2024/01/28 06:53:49;;;;;;;26.35;13.25;;;1.80;99.90;;;;;;4927659;29;20024;-77
2024/01/28 06:56:20;;;;;;;23.33;10.45;;;1.90;99.90;;;;;;4933916;29;20051;-77
2024/01/28 06:58:48;;;;;;;;;;;2.00;99.90;;;;;;4933771;29;20423;-77
2024/01/28 07:01:19;;;;;;;16.35;7.20;;;2.00;99.90;;;;;;4922425;29;19953;-76
2024/01/28 07:03:46;;;;;;;18.30;7.50;;;2.10;99.90;;;;;;4937311;29;20055;-77
2024/01/28 07:06:19;;;;;;;16.80;6.93;;;2.10;99.90;;;;;;4944258;29;20040;-77
2024/01/28 07:08:58;;;;;;;29.65;13.65;;;2.10;99.90;;;;;;4925934;29;20036;-77
2024/01/28 07:11:31;;;;;;;21.52;9.85;;;2.30;99.90;;;;;;4932038;29;20024;-72
2024/01/28 07:13:57;;;;;;;17.00;7.85;;;2.30;99.90;;;;;;4917828;29;20043;-78
2024/01/28 07:16:26;;;;;;;18.00;7.63;;;2.40;99.90;;;;;;4919286;29;20167;-73
2024/01/28 07:18:57;;;;;;;18.17;8.52;;;2.50;99.90;;;;;;4918691;29;20036;-73
2024/01/28 07:21:26;;;;;;;19.67;10.45;;;2.60;99.90;;;;;;4927546;29;20043;-73
2024/01/28 07:23:56;;;;;;;20.65;10.60;;;2.70;99.90;;;;;;4935833;29;20184;-78
2024/01/28 07:26:30;;;;;;;23.60;9.98;;;2.80;99.90;;;;;;4921096;29;20409;-73
2024/01/28 07:29:01;;;;;;;21.00;9.43;;;2.80;99.90;;;;;;4924946;29;20055;-72
2024/01/28 07:31:33;;;;;;;19.15;8.73;;;2.90;99.90;;;;;;4937294;29;20027;-78
2024/01/28 07:34:03;;;;;;;17.40;9.57;;;3.00;99.90;;;;;;4921618;29;20030;-72
2024/01/28 07:36:37;;;;;;;22.38;10.43;;;3.00;99.90;;;;;;4912222;29;20035;-72
2024/01/28 07:39:06;;;;;;;21.33;10.77;;;3.10;99.90;;;;;;4920449;29;20044;-73
2024/01/28 07:41:42;;;;;;;22.52;9.40;;;3.20;99.90;;;;;;4936464;29;20103;-72
2024/01/28 07:44:13;;;;;;;20.17;9.20;;;3.20;99.90;;;;;;4954337;28;20047;-76
2024/01/28 07:46:47;;;;;;;20.98;8.90;;;3.30;99.90;;;;;;4920534;29;20029;-72
2024/01/28 07:49:25;;;;;;;15.75;7.80;;;3.30;99.90;;;;;;4914171;29;20040;-72
2024/01/28 07:51:52;;;;;;;18.02;8.75;;;3.40;99.90;;;;;;4947978;29;20114;-72
2024/01/28 07:54:30;;;;;;;22.17;8.02;;;3.50;99.90;;;;;;4948614;28;20020;-79
2024/01/28 07:56:59;;;;;;;21.75;8.65;;;3.50;99.90;;;;;;4950932;29;20076;-79
2024/01/28 07:59:27;;;;;;;17.15;8.18;;;3.60;99.90;;;;;;4915690;29;20035;-72
2024/01/28 08:01:53;;;;;;;16.02;7.60;;;3.70;99.90;;;;;;4923435;28;20031;-75
2024/01/28 08:04:21;;;;;;;17.85;7.38;;;3.70;99.90;;;;;;4946153;29;20524;-74
2024/01/28 08:06:49;;;;;;;18.92;7.07;;;3.80;99.90;;;;;;4929713;29;20038;-80
2024/01/28 08:09:18;;;;;;;20.08;10.25;;;3.80;99.90;;;;;;4931924;29;20033;-80
2024/01/28 08:11:44;;;;;;;18.45;8.90;;;3.90;99.90;;;;;;4946484;29;20467;-75
2024/01/28 08:14:17;;;;;;;19.23;8.15;;;4.00;99.90;;;;;;4939887;29;20027;-75
2024/01/28 08:16:45;;;;;;;20.40;8.35;;;4.10;99.90;;;;;;4936114;29;20028;-79
2024/01/28 08:19:11;;;;;;;23.38;10.25;;;4.20;99.90;;;;;;4951323;29;20039;-75
2024/01/28 08:21:40;;;;;;;18.52;9.60;;;4.20;99.90;;;;;;4956547;29;20479;-74
2024/01/28 08:24:06;;;;;;;18.30;8.77;;;4.20;99.90;;;;;;4931925;29;20537;-78
2024/01/28 08:26:32;;;;;;;22.45;9.38;;;4.20;99.90;;;;;;4948820;29;20024;-77
2024/01/28 08:28:58;;;;;;;22.08;9.02;;;4.20;99.90;;;;;;4951969;29;20510;-75
2024/01/28 08:31:24;;;;;;;16.33;8.13;;;4.30;99.90;;;;;;4922893;29;20472;-78
2024/01/28 08:33:55;;;;;;;19.67;8.52;;;4.40;99.90;;;;;;4952545;29;20023;-75
2024/01/28 08:36:23;;;;;;;21.98;9.15;;;4.40;99.90;;;;;;4923949;29;20027;-78
2024/01/28 08:38:49;;;;;;;18.17;7.75;;;4.30;99.90;;;;;;4917899;29;20158;-81
2024/01/28 08:41:15;;;;;;;23.35;9.18;;;4.40;99.90;;;;;;4949847;28;20034;-81
2024/01/28 08:43:46;;;;;;;19.65;7.43;;;4.30;99.90;;;;;;4938178;29;20052;-76
2024/01/28 08:46:14;;;;;;;21.10;8.30;;;4.20;99.90;;;;;;4955016;29;20027;-78
2024/01/28 08:48:40;;;;;;;18.35;9.45;;;4.30;99.90;;;;;;4939494;29;20031;-78
2024/01/28 08:51:08;;;;;;;20.05;8.25;;;4.40;99.90;;;;;;4931625;29;20074;-75
2024/01/28 08:53:34;;;;;;;17.08;8.73;;;4.40;99.90;;;;;;4931043;29;20031;-75
2024/01/28 08:56:00;;;;;;;22.92;8.70;;;4.60;99.90;;;;;;4947824;29;20024;-81
2024/01/28 08:58:31;;;;;;;21.90;8.07;;;4.70;99.90;;;;;;4951081;29;20039;-79
2024/01/28 09:00:57;;;;;;;27.42;8.65;;;4.80;99.90;;;;;;4922699;29;20027;-73
2024/01/28 09:03:25;;;;;;;21.65;8.93;;;5.00;99.90;;;;;;4947853;29;20027;-72
2024/01/28 09:05:56;;;;;;;14.30;7.47;;;5.00;99.90;;;;;;4915609;29;20038;-72
2024/01/28 09:08:28;;;;;;;19.65;7.28;;;4.90;99.90;;;;;;4914908;29;20039;-81
2024/01/28 09:11:00;;;;;;;14.02;6.65;;;4.90;99.90;;;;;;4910083;29;20035;-77
2024/01/28 09:13:31;;;;;;;12.30;6.65;;;4.90;99.90;;;;;;4922360;29;20483;-71
2024/01/28 09:16:11;;;;;;;17.02;7.72;;;4.90;99.90;;;;;;4955666;28;20031;-74
2024/01/28 09:18:42;;;;;;;;;;;4.90;99.90;;;;;;4922994;29;20093;-80
2024/01/28 09:21:15;;;;;;;15.40;6.07;;;5.00;99.90;;;;;;4937943;29;19910;-75
2024/01/28 09:23:46;;;;;;;15.40;5.90;;;5.10;99.90;;;;;;4922416;29;20483;-76
2024/01/28 09:26:12;;;;;;;17.88;6.85;;;5.10;99.90;;;;;;4938049;29;20035;-81
2024/01/28 09:28:52;;;;;;;15.02;6.30;;;5.20;99.90;;;;;;4956668;28;20031;-72
2024/01/28 09:31:27;;;;;;;20.35;7.80;;;5.30;99.90;;;;;;4924402;29;20431;-81
2024/01/28 09:33:53;;;;;;;16.50;6.20;;;5.40;99.90;;;;;;4933084;29;20094;-79
2024/01/28 09:36:24;;;;;;;19.63;6.05;;;5.30;99.90;;;;;;4938422;29;20114;-79
2024/01/28 09:38:55;;;;;;;17.63;6.30;;;5.30;99.90;;;;;;4948653;28;20035;-80
2024/01/28 09:41:38;;;;;;;16.95;6.03;;;5.20;99.90;;;;;;4946479;28;20034;-73
2024/01/28 09:44:09;;;;;;;14.95;5.30;;;5.30;99.90;;;;;;4936799;29;20055;-74
2024/01/28 09:46:36;;;;;;;14.65;5.75;;;5.30;99.90;;;;;;4949741;28;20070;-80
2024/01/28 09:49:11;;;;;;;13.23;5.53;;;5.40;99.90;;;;;;4937453;29;20062;-73
2024/01/28 09:51:42;;;;;;;13.38;5.32;;;5.50;99.90;;;;;;4936839;29;20036;-74
2024/01/28 09:54:15;;;;;;;10.35;4.55;;;5.50;99.90;;;;;;4921573;29;20024;-73
2024/01/28 09:56:43;;;;;;;10.45;4.80;;;5.60;99.90;;;;;;4927622;29;20023;-77
2024/01/28 09:59:20;;;;;;;12.20;4.30;;;5.70;99.90;;;;;;4953789;28;20030;-80
2024/01/28 10:01:52;;;;;;;11.55;4.65;;;5.70;99.90;;;;;;4921652;29;20126;-81
2024/01/28 10:04:23;;;;;;;16.92;4.03;;;5.70;99.90;;;;;;4922184;29;20137;-76
2024/01/28 10:06:49;;;;;;;15.82;5.05;;;5.70;99.90;;;;;;4937659;29;20031;-81
2024/01/28 10:09:16;;;;;;;10.52;4.20;;;5.70;99.90;;;;;;4954901;29;20431;-73
2024/01/28 10:11:45;;;;;;;10.60;4.07;;;5.80;99.90;;;;;;4950697;29;20459;-74
2024/01/28 10:14:14;;;;;;;14.35;4.22;;;5.80;99.90;;;;;;4941860;29;20071;-73
2024/01/28 10:16:40;;;;;;;13.25;6.10;;;5.80;99.90;;;;;;4916280;29;20078;-75
2024/01/28 10:19:11;;;;;;;14.18;5.57;;;5.90;99.90;;;;;;4946731;29;20066;-79
2024/01/28 10:21:42;;;;;;;12.68;4.50;;;5.90;99.90;;;;;;4922531;29;20134;-73
2024/01/28 10:24:10;;;;;;;7.88;3.78;;;6.00;99.90;;;;;;4921384;28;20067;-75
2024/01/28 10:26:38;;;;;;;12.07;4.15;;;6.00;99.90;;;;;;4922113;29;20028;-76
2024/01/28 10:29:09;;;;;;;15.35;4.75;;;5.90;99.90;;;;;;4937371;28;20043;-80
2024/01/28 10:31:39;;;;;;;12.40;4.25;;;6.00;99.90;;;;;;4919282;29;20035;-73
2024/01/28 10:34:05;;;;;;;15.40;6.97;;;5.90;99.90;;;;;;4944275;29;20063;-73
2024/01/28 10:36:36;;;;;;;13.93;4.78;;;5.90;99.90;;;;;;4937722;29;20443;-79
2024/01/28 10:39:04;;;;;;;14.90;5.78;;;6.00;99.90;;;;;;4954876;28;20026;-73
2024/01/28 10:41:37;;;;;;;15.40;5.68;;;6.00;99.90;;;;;;4921344;29;20031;-73
2024/01/28 10:44:08;;;;;;;8.05;3.92;;;6.20;99.90;;;;;;4939053;23;20051;-79
2024/01/28 10:46:39;;;;;;;15.77;4.68;;;6.20;99.90;;;;;;4936453;29;20106;-74
2024/01/28 10:49:07;;;;;;;18.83;5.93;;;6.40;99.90;;;;;;4952401;29;20039;-73
2024/01/28 10:51:35;;;;;;;11.55;4.32;;;6.40;99.90;;;;;;4955885;28;20027;-74
2024/01/28 10:54:10;;;;;;;9.45;4.10;;;6.30;99.90;;;;;;4936670;29;20032;-75
2024/01/28 10:56:40;;;;;;;10.20;3.97;;;6.30;99.90;;;;;;4919203;29;20059;-75
2024/01/28 10:59:07;;;;;;;11.23;4.60;;;6.30;99.90;;;;;;4951447;29;20036;-74
2024/01/28 11:01:36;;;;;;;14.10;4.93;;;6.50;99.90;;;;;;4957410;29;20113;-75
2024/01/28 11:04:04;;;;;;;16.67;5.80;;;6.60;99.90;;;;;;4957203;29;20023;-73
2024/01/28 11:06:30;;;;;;;13.18;4.82;;;6.80;99.90;;;;;;4957127;29;20039;-75
2024/01/28 11:08:57;;;;;;;14.50;4.63;;;6.80;99.90;;;;;;4956993;29;20402;-74
2024/01/28 11:11:24;;;;;;;12.68;6.13;;;6.70;99.90;;;;;;4956880;28;20059;-77
2024/01/28 11:13:50;;;;;;;14.98;5.68;;;6.80;99.90;;;;;;4939736;29;20511;-73
2024/01/28 11:16:19;;;;;;;16.63;5.70;;;6.70;99.90;;;;;;4957213;29;20035;-75
2024/01/28 11:18:57;;;;;;;12.10;5.55;;;6.50;99.90;;;;;;4956819;28;20023;-73
2024/01/28 11:21:25;;;;;;;15.18;6.70;;;6.30;99.90;;;;;;4956878;29;20051;-74
2024/01/28 11:23:54;;;;;;;14.73;5.10;;;6.40;99.90;;;;;;4956590;29;20023;-75
2024/01/28 11:26:20;;;;;;;15.02;6.20;;;6.40;99.90;;;;;;4956930;29;20365;-73
2024/01/28 11:28:50;;;;;;;15.73;5.63;;;6.70;99.90;;;;;;4956675;29;20129;-74
2024/01/28 11:31:30;;;;;;;17.40;6.20;;;6.80;99.90;;;;;;4956683;29;20041;-74
2024/01/28 11:34:06;;;;;;;11.20;5.13;;;6.80;99.90;;;;;;4956624;29;20059;-75
2024/01/28 11:36:36;;;;;;;16.60;5.55;;;6.80;99.90;;;;;;4939522;29;20027;-74
2024/01/28 11:39:06;;;;;;;19.80;7.43;;;6.90;99.90;;;;;;4939132;29;20391;-73
2024/01/28 11:41:37;;;;;;;14.95;6.07;;;7.10;99.90;;;;;;4957003;29;20059;-73
2024/01/28 11:44:04;;;;;;;17.27;6.70;;;7.10;99.90;;;;;;4938716;29;20428;-73
2024/01/28 11:46:30;;;;;;;13.23;5.40;;;7.10;99.90;;;;;;4956531;29;20070;-73
2024/01/28 11:48:56;;;;;;;10.48;4.10;;;7.20;99.90;;;;;;4955949;29;20137;-74
2024/01/28 11:51:22;;;;;;;16.13;4.80;;;7.20;99.90;;;;;;4956590;29;20051;-74
2024/01/28 11:53:48;;;;;;;14.43;5.07;;;7.20;99.90;;;;;;4955844;29;20027;-73
2024/01/28 11:56:16;;;;;;;10.55;4.68;;;7.10;99.90;;;;;;4956452;29;20035;-74
2024/01/28 11:58:42;;;;;;;17.13;5.18;;;7.20;99.90;;;;;;4956113;29;20019;-74
2024/01/28 12:01:08;;;;;;;15.10;4.80;;;7.20;99.90;;;;;;4938931;28;20031;-73
2024/01/28 12:03:34;;;;;;;14.15;5.22;;;7.20;99.90;;;;;;4955122;28;20045;-74
2024/01/28 12:06:00;;;;;;;15.10;5.07;;;7.30;99.90;;;;;;4955960;29;20023;-74
2024/01/28 12:08:27;;;;;;;14.20;5.95;;;7.40;99.90;;;;;;4955854;29;20039;-74
2024/01/28 12:10:58;;;;;;;10.10;4.40;;;7.40;99.90;;;;;;4955785;29;20497;-74
2024/01/28 12:13:24;;;;;;;12.10;5.40;;;7.50;99.90;;;;;;4938580;29;20035;-74
2024/01/28 12:15:50;;;;;;;12.98;4.75;;;7.50;99.90;;;;;;4955596;29;20378;-74
2024/01/28 12:18:16;;;;;;;17.23;5.80;;;7.40;99.90;;;;;;4956601;29;20563;-75
2024/01/28 12:20:42;;;;;;;16.30;4.85;;;7.60;99.90;;;;;;4955666;29;20150;-74
2024/01/28 12:23:08;;;;;;;12.30;4.50;;;7.50;99.90;;;;;;4955409;29;20062;-75
2024/01/28 12:25:37;;;;;;;11.38;4.43;;;7.50;99.90;;;;;;4956117;29;20036;-73
2024/01/28 12:28:03;;;;;;;14.63;5.40;;;7.60;99.90;;;;;;4943207;29;20066;-74
2024/01/28 12:30:29;;;;;;;13.77;5.68;;;7.70;99.90;;;;;;4955740;29;20397;-73
2024/01/28 12:32:55;;;;;;;9.05;4.30;;;7.80;99.80;;;;;;4955280;29;20027;-74
2024/01/28 12:35:21;;;;;;;17.48;6.38;;;7.80;99.50;;;;;;4955586;29;20031;-75
2024/01/28 12:37:47;;;;;;;9.93;3.95;;;7.90;99.80;;;;;;4955208;29;20030;-76
2024/01/28 12:40:13;;;;;;;12.82;3.90;;;7.90;99.30;;;;;;4955444;29;20082;-75
2024/01/28 12:42:40;;;;;;;11.77;3.97;;;7.90;98.70;;;;;;4954750;29;20114;-74
2024/01/28 12:45:07;;;;;;;9.30;4.13;;;7.80;98.40;;;;;;4955507;29;20504;-75
2024/01/28 12:47:36;;;;;;;10.38;4.25;;;7.70;98.80;;;;;;4953944;28;20391;-75
2024/01/28 12:50:05;;;;;;;9.68;4.30;;;7.80;99.00;;;;;;4955221;29;20035;-74
2024/01/28 12:52:31;;;;;;;13.70;4.75;;;7.80;98.20;;;;;;4955036;29;20539;-74
2024/01/28 12:54:57;;;;;;;14.85;5.55;;;7.90;98.40;;;;;;4955113;29;20035;-74
2024/01/28 12:57:23;;;;;;;12.10;4.32;;;8.00;98.90;;;;;;4955030;29;20035;-74